German Bay — V2AI1 — position and weather

sailwx.info

Track history (hours):
 
Tides and Currents Weather Stations Pressure Air Temp Water Temp Dewpoint Dewpoint Depression Visibility Wind Speed Wind Dir Waves Ship Positions

German Bay

Last reported at 2018-Feb-23 01:26 UTC. Time now 2018-Feb-23 15:57 UTC.
Position N 40°51' E 013°30'.

Length 100 m; draft 4.1 m.

Type: Ship. MMSI: 304010763.

Date/timePositionNaut miles runAvg speedWind from/ knotsBaromVisibWave heightAir tempDewpointWater temp
2018-Feb-23 01:26N 40°51' E 013°30'510.9
2018-Feb-23 01:00N 40°48' E 013°35'611.3
2018-Feb-23 00:30N 40°45' E 013°41'611.2
2018-Feb-23 00:00N 40°41' E 013°47'611.1
2018-Feb-22 23:30N 40°38' E 013°53'611.1
2018-Feb-22 23:00N 40°35' E 013°59'510.5
2018-Feb-22 22:30N 40°32' E 014°05'510.0
2018-Feb-22 22:00N 40°29' E 014°11'510.1
2018-Feb-22 21:30N 40°29' E 014°17'5 9.6
2018-Feb-22 21:00N 40°30' E 014°23'5 9.6
2018-Feb-22 20:30N 40°32' E 014°29'510.2
2018-Feb-22 20:00N 40°34' E 014°35'510.3
2018-Feb-22 19:30N 40°36' E 014°41'  
2018-Feb-18 03:49N 43°08' E 009°54'310.2
2018-Feb-18 03:30N 43°10' E 009°50'510.2
2018-Feb-18 03:00N 43°09' E 009°43'510.2
2018-Feb-18 02:29N 43°09' E 009°35'203 9.6
2018-Feb-17 05:29N 43°21' E 004°58'4 8.4
2018-Feb-17 04:59N 43°24' E 004°54'2 0.1
2018-Feb-16 14:43N 43°26' E 004°54'0 0.0
2018-Feb-16 14:28N 43°26' E 004°54'0 0.0
2018-Feb-16 13:46N 43°26' E 004°54'0 0.0
2018-Feb-16 13:28N 43°26' E 004°54'0 0.0
2018-Feb-16 12:55N 43°26' E 004°54'0 0.0
2018-Feb-16 12:28N 43°26' E 004°54'0 0.0
2018-Feb-16 11:58N 43°26' E 004°54'0 0.0
2018-Feb-16 11:28N 43°26' E 004°54'0 0.0
2018-Feb-16 10:58N 43°26' E 004°54'0 0.0
2018-Feb-16 10:28N 43°26' E 004°54'0 0.0
2018-Feb-16 09:58N 43°26' E 004°54'0 0.0
2018-Feb-16 09:28N 43°26' E 004°54'0 0.0
2018-Feb-16 08:58N 43°26' E 004°54'0 0.1
2018-Feb-16 08:30N 43°26' E 004°54'2 3.9
2018-Feb-16 08:00N 43°25' E 004°56'0 0.1
2018-Feb-16 07:30N 43°25' E 004°56'0 0.0
2018-Feb-16 06:57N 43°25' E 004°56'0 0.0
2018-Feb-16 06:30N 43°25' E 004°56'0 0.0
2018-Feb-16 06:00N 43°25' E 004°56'0 0.0
2018-Feb-16 05:30N 43°25' E 004°56'0 0.0
2018-Feb-16 04:54N 43°25' E 004°56'0 0.0
2018-Feb-16 04:30N 43°25' E 004°56'0 0.1
2018-Feb-16 04:00N 43°25' E 004°56'0 0.0
2018-Feb-16 03:27N 43°25' E 004°56'0 0.0
2018-Feb-16 03:00N 43°25' E 004°56'0 0.0
2018-Feb-16 02:30N 43°25' E 004°56'0 0.2
2018-Feb-16 02:00N 43°24' E 004°56'0 0.0
2018-Feb-16 01:30N 43°24' E 004°56'0 0.1
2018-Feb-16 01:00N 43°25' E 004°56'0 0.1
2018-Feb-16 00:30N 43°25' E 004°56'0 0.0
2018-Feb-16 00:00N 43°25' E 004°56'0 0.1
2018-Feb-15 23:30N 43°25' E 004°56'0 0.0
2018-Feb-15 23:00N 43°25' E 004°56'0 0.0
2018-Feb-15 22:27N 43°25' E 004°56'0 0.0
2018-Feb-15 22:00N 43°25' E 004°56'0 0.0
2018-Feb-15 21:30N 43°24' E 004°56'0 0.0
2018-Feb-15 21:00N 43°24' E 004°56'0 0.1
2018-Feb-15 20:30N 43°24' E 004°56'0 0.0
2018-Feb-15 20:00N 43°24' E 004°56'0 0.0
2018-Feb-15 19:30N 43°24' E 004°56'0 0.0
2018-Feb-15 19:00N 43°24' E 004°56'0 0.0
2018-Feb-15 18:30N 43°24' E 004°56'0 0.0
2018-Feb-15 18:00N 43°24' E 004°56'0 0.1
2018-Feb-15 17:27N 43°25' E 004°56'0 0.0
2018-Feb-15 17:00N 43°25' E 004°56'0 0.0
2018-Feb-15 16:30N 43°25' E 004°56'0 0.0
2018-Feb-15 16:00N 43°25' E 004°56'0 0.0
2018-Feb-15 15:30N 43°25' E 004°56'0 0.0
2018-Feb-15 14:57N 43°25' E 004°56'0 0.0
2018-Feb-15 14:30N 43°25' E 004°56'0 0.0
2018-Feb-15 13:54N 43°25' E 004°56'0 0.0
2018-Feb-15 13:27N 43°25' E 004°56'0 0.0
2018-Feb-15 12:57N 43°25' E 004°56'0 0.0
2018-Feb-15 12:30N 43°25' E 004°56'0 0.0
2018-Feb-15 12:00N 43°25' E 004°56'0 0.1
2018-Feb-15 11:27N 43°25' E 004°56'0 0.1
2018-Feb-15 11:00N 43°25' E 004°56'0 0.0
2018-Feb-15 10:30N 43°25' E 004°56'0 0.0
2018-Feb-15 09:51N 43°25' E 004°56'0 0.0
2018-Feb-15 09:30N 43°25' E 004°56'0 0.0
2018-Feb-15 09:00N 43°25' E 004°56'0 0.0
2018-Feb-15 08:27N 43°25' E 004°56'0 0.0
2018-Feb-15 08:00N 43°25' E 004°56'0 0.0
2018-Feb-15 07:30N 43°25' E 004°56'0 0.0
2018-Feb-15 07:00N 43°25' E 004°56'0 0.0
2018-Feb-15 06:24N 43°25' E 004°56'0 0.0
2018-Feb-15 06:00N 43°25' E 004°56'0 0.0
2018-Feb-15 05:27N 43°25' E 004°56'0 0.0
2018-Feb-15 05:00N 43°25' E 004°56'0 0.0
2018-Feb-15 04:30N 43°25' E 004°56'0 0.0
2018-Feb-15 04:00N 43°25' E 004°56'0 0.0
2018-Feb-15 03:30N 43°25' E 004°56'0 0.0
2018-Feb-15 03:00N 43°25' E 004°56'0 0.0
2018-Feb-15 02:30N 43°25' E 004°56'0 0.0
2018-Feb-15 02:00N 43°25' E 004°56'0 0.0
2018-Feb-15 01:30N 43°25' E 004°56'0 0.0
2018-Feb-15 01:00N 43°25' E 004°56'0 0.0
2018-Feb-15 00:27N 43°25' E 004°56'0 0.0
2018-Feb-15 00:00N 43°25' E 004°56'0 0.0
2018-Feb-14 23:30N 43°25' E 004°56'0 0.0
2018-Feb-14 23:00N 43°25' E 004°56'0 0.0
2018-Feb-14 22:15N 43°24' E 004°56'0 0.0
2018-Feb-14 22:00N 43°24' E 004°56'0 0.1
2018-Feb-14 21:27N 43°24' E 004°56'0 0.1
2018-Feb-14 21:00N 43°24' E 004°56'0 0.1
2018-Feb-14 20:27N 43°25' E 004°56'0 0.0
2018-Feb-14 20:00N 43°25' E 004°56'0 0.0
2018-Feb-14 19:18N 43°25' E 004°56'0 0.1
2018-Feb-14 19:00N 43°25' E 004°56'0 0.0
2018-Feb-14 18:30N 43°25' E 004°56'0 0.0
2018-Feb-14 17:54N 43°25' E 004°56'0 0.0
2018-Feb-14 17:27N 43°25' E 004°56'0 0.0
2018-Feb-14 17:00N 43°25' E 004°56'0 0.0
2018-Feb-14 16:27N 43°25' E 004°56'0 0.0
2018-Feb-14 15:57N 43°25' E 004°56'1 2.0
2018-Feb-14 15:30N 43°24' E 004°57'611.0
2018-Feb-14 15:00N 43°19' E 004°60'611.4
2018-Feb-14 14:30N 43°13' E 005°02'85 9.0
2018-Feb-14 05:05N 43°11' E 006°59'1 9.8
2018-Feb-14 05:00N 43°12' E 006°60'510.0
2018-Feb-14 04:30N 43°14' E 007°05'510.9
2018-Feb-14 04:00N 43°17' E 007°12'510.6
2018-Feb-14 03:30N 43°20' E 007°18'510.8
2018-Feb-14 03:00N 43°23' E 007°24'611.2
2018-Feb-14 02:26N 43°27' E 007°31'6111.0
2018-Feb-13 20:56N 44°11' E 008°29'410.1
2018-Feb-13 20:29N 44°15' E 008°31'4 7.3
2018-Feb-13 20:00N 44°19' E 008°30'0 0.3
2018-Feb-13 19:26N 44°19' E 008°30'0 0.0
2018-Feb-13 18:56N 44°19' E 008°30'0 0.0
2018-Feb-13 18:26N 44°19' E 008°30'0 0.0
2018-Feb-13 17:56N 44°19' E 008°30'0 0.0
2018-Feb-13 17:26N 44°19' E 008°30'0 0.0
2018-Feb-13 16:56N 44°19' E 008°30'0 0.0
2018-Feb-13 16:29N 44°19' E 008°30'0 0.0
2018-Feb-13 15:59N 44°19' E 008°30'0 0.0
2018-Feb-13 15:26N 44°19' E 008°30'0 0.0
2018-Feb-13 14:59N 44°19' E 008°30'0 0.0
2018-Feb-13 14:29N 44°19' E 008°30'0 0.0
2018-Feb-13 13:59N 44°19' E 008°30'0 0.0
2018-Feb-13 13:29N 44°19' E 008°30'0 0.0
2018-Feb-13 12:59N 44°19' E 008°30'0 0.0
2018-Feb-13 12:29N 44°19' E 008°30'0 0.0
2018-Feb-13 12:00N 44°19' E 008°30'1 1.3
2018-Feb-13 11:30N 44°19' E 008°31'3 6.7
2018-Feb-13 11:00N 44°16' E 008°31'510.2
2018-Feb-13 10:30N 44°11' E 008°29'71 9.5
2018-Feb-13 03:04N 43°21' E 007°20'110.4
2018-Feb-13 02:55N 43°20' E 007°18'410.5
2018-Feb-13 02:30N 43°17' E 007°13'510.7
2018-Feb-13 02:00N 43°14' E 007°07'510.4
2018-Feb-13 01:30N 43°11' E 007°01'  
Track history (hours):
 
Tides and Currents Weather Stations Pressure Air Temp Water Temp Dewpoint Dewpoint Depression Visibility Wind Speed Wind Dir Waves Ship Positions

German Bay

Last reported at 2018-Feb-23 01:26 UTC. Time now 2018-Feb-23 15:57 UTC.
Position N 40°51' E 013°30'.

Length 100 m; draft 4.1 m.

Type: Ship. MMSI: 304010763.

Date/timePositionNaut miles runAvg speedWind from/ knotsBaromVisibWave heightAir tempDewpointWater temp
2018-Feb-23 01:26N 40°51' E 013°30'510.9
2018-Feb-23 01:00N 40°48' E 013°35'611.3
2018-Feb-23 00:30N 40°45' E 013°41'611.2
2018-Feb-23 00:00N 40°41' E 013°47'611.1
2018-Feb-22 23:30N 40°38' E 013°53'611.1
2018-Feb-22 23:00N 40°35' E 013°59'510.5
2018-Feb-22 22:30N 40°32' E 014°05'510.0
2018-Feb-22 22:00N 40°29' E 014°11'510.1
2018-Feb-22 21:30N 40°29' E 014°17'5 9.6
2018-Feb-22 21:00N 40°30' E 014°23'5 9.6
2018-Feb-22 20:30N 40°32' E 014°29'510.2
2018-Feb-22 20:00N 40°34' E 014°35'510.3
2018-Feb-22 19:30N 40°36' E 014°41'  
2018-Feb-18 03:49N 43°08' E 009°54'310.2
2018-Feb-18 03:30N 43°10' E 009°50'510.2
2018-Feb-18 03:00N 43°09' E 009°43'510.2
2018-Feb-18 02:29N 43°09' E 009°35'203 9.6
2018-Feb-17 05:29N 43°21' E 004°58'4 8.4
2018-Feb-17 04:59N 43°24' E 004°54'2 0.1
2018-Feb-16 14:43N 43°26' E 004°54'0 0.0
2018-Feb-16 14:28N 43°26' E 004°54'0 0.0
2018-Feb-16 13:46N 43°26' E 004°54'0 0.0
2018-Feb-16 13:28N 43°26' E 004°54'0 0.0
2018-Feb-16 12:55N 43°26' E 004°54'0 0.0
2018-Feb-16 12:28N 43°26' E 004°54'0 0.0
2018-Feb-16 11:58N 43°26' E 004°54'0 0.0
2018-Feb-16 11:28N 43°26' E 004°54'0 0.0
2018-Feb-16 10:58N 43°26' E 004°54'0 0.0
2018-Feb-16 10:28N 43°26' E 004°54'0 0.0
2018-Feb-16 09:58N 43°26' E 004°54'0 0.0
2018-Feb-16 09:28N 43°26' E 004°54'0 0.0
2018-Feb-16 08:58N 43°26' E 004°54'0 0.1
2018-Feb-16 08:30N 43°26' E 004°54'2 3.9
2018-Feb-16 08:00N 43°25' E 004°56'0 0.1
2018-Feb-16 07:30N 43°25' E 004°56'0 0.0
2018-Feb-16 06:57N 43°25' E 004°56'0 0.0
2018-Feb-16 06:30N 43°25' E 004°56'0 0.0
2018-Feb-16 06:00N 43°25' E 004°56'0 0.0
2018-Feb-16 05:30N 43°25' E 004°56'0 0.0
2018-Feb-16 04:54N 43°25' E 004°56'0 0.0
2018-Feb-16 04:30N 43°25' E 004°56'0 0.1
2018-Feb-16 04:00N 43°25' E 004°56'0 0.0
2018-Feb-16 03:27N 43°25' E 004°56'0 0.0
2018-Feb-16 03:00N 43°25' E 004°56'0 0.0
2018-Feb-16 02:30N 43°25' E 004°56'0 0.2
2018-Feb-16 02:00N 43°24' E 004°56'0 0.0
2018-Feb-16 01:30N 43°24' E 004°56'0 0.1
2018-Feb-16 01:00N 43°25' E 004°56'0 0.1
2018-Feb-16 00:30N 43°25' E 004°56'0 0.0
2018-Feb-16 00:00N 43°25' E 004°56'0 0.1
2018-Feb-15 23:30N 43°25' E 004°56'0 0.0
2018-Feb-15 23:00N 43°25' E 004°56'0 0.0
2018-Feb-15 22:27N 43°25' E 004°56'0 0.0
2018-Feb-15 22:00N 43°25' E 004°56'0 0.0
2018-Feb-15 21:30N 43°24' E 004°56'0 0.0
2018-Feb-15 21:00N 43°24' E 004°56'0 0.1
2018-Feb-15 20:30N 43°24' E 004°56'0 0.0
2018-Feb-15 20:00N 43°24' E 004°56'0 0.0
2018-Feb-15 19:30N 43°24' E 004°56'0 0.0
2018-Feb-15 19:00N 43°24' E 004°56'0 0.0
2018-Feb-15 18:30N 43°24' E 004°56'0 0.0
2018-Feb-15 18:00N 43°24' E 004°56'0 0.1
2018-Feb-15 17:27N 43°25' E 004°56'0 0.0
2018-Feb-15 17:00N 43°25' E 004°56'0 0.0
2018-Feb-15 16:30N 43°25' E 004°56'0 0.0
2018-Feb-15 16:00N 43°25' E 004°56'0 0.0
2018-Feb-15 15:30N 43°25' E 004°56'0 0.0
2018-Feb-15 14:57N 43°25' E 004°56'0 0.0
2018-Feb-15 14:30N 43°25' E 004°56'0 0.0
2018-Feb-15 13:54N 43°25' E 004°56'0 0.0
2018-Feb-15 13:27N 43°25' E 004°56'0 0.0
2018-Feb-15 12:57N 43°25' E 004°56'0 0.0
2018-Feb-15 12:30N 43°25' E 004°56'0 0.0
2018-Feb-15 12:00N 43°25' E 004°56'0 0.1
2018-Feb-15 11:27N 43°25' E 004°56'0 0.1
2018-Feb-15 11:00N 43°25' E 004°56'0 0.0
2018-Feb-15 10:30N 43°25' E 004°56'0 0.0
2018-Feb-15 09:51N 43°25' E 004°56'0 0.0
2018-Feb-15 09:30N 43°25' E 004°56'0 0.0
2018-Feb-15 09:00N 43°25' E 004°56'0 0.0
2018-Feb-15 08:27N 43°25' E 004°56'0 0.0
2018-Feb-15 08:00N 43°25' E 004°56'0 0.0
2018-Feb-15 07:30N 43°25' E 004°56'0 0.0
2018-Feb-15 07:00N 43°25' E 004°56'0 0.0
2018-Feb-15 06:24N 43°25' E 004°56'0 0.0
2018-Feb-15 06:00N 43°25' E 004°56'0 0.0
2018-Feb-15 05:27N 43°25' E 004°56'0 0.0
2018-Feb-15 05:00N 43°25' E 004°56'0 0.0
2018-Feb-15 04:30N 43°25' E 004°56'0 0.0
2018-Feb-15 04:00N 43°25' E 004°56'0 0.0
2018-Feb-15 03:30N 43°25' E 004°56'0 0.0
2018-Feb-15 03:00N 43°25' E 004°56'0 0.0
2018-Feb-15 02:30N 43°25' E 004°56'0 0.0
2018-Feb-15 02:00N 43°25' E 004°56'0 0.0
2018-Feb-15 01:30N 43°25' E 004°56'0 0.0
2018-Feb-15 01:00N 43°25' E 004°56'0 0.0
2018-Feb-15 00:27N 43°25' E 004°56'0 0.0
2018-Feb-15 00:00N 43°25' E 004°56'0 0.0
2018-Feb-14 23:30N 43°25' E 004°56'0 0.0
2018-Feb-14 23:00N 43°25' E 004°56'0 0.0
2018-Feb-14 22:15N 43°24' E 004°56'0 0.0
2018-Feb-14 22:00N 43°24' E 004°56'0 0.1
2018-Feb-14 21:27N 43°24' E 004°56'0 0.1
2018-Feb-14 21:00N 43°24' E 004°56'0 0.1
2018-Feb-14 20:27N 43°25' E 004°56'0 0.0
2018-Feb-14 20:00N 43°25' E 004°56'0 0.0
2018-Feb-14 19:18N 43°25' E 004°56'0 0.1
2018-Feb-14 19:00N 43°25' E 004°56'0 0.0
2018-Feb-14 18:30N 43°25' E 004°56'0 0.0
2018-Feb-14 17:54N 43°25' E 004°56'0 0.0
2018-Feb-14 17:27N 43°25' E 004°56'0 0.0
2018-Feb-14 17:00N 43°25' E 004°56'0 0.0
2018-Feb-14 16:27N 43°25' E 004°56'0 0.0
2018-Feb-14 15:57N 43°25' E 004°56'1 2.0
2018-Feb-14 15:30N 43°24' E 004°57'611.0
2018-Feb-14 15:00N 43°19' E 004°60'611.4
2018-Feb-14 14:30N 43°13' E 005°02'85 9.0
2018-Feb-14 05:05N 43°11' E 006°59'1 9.8
2018-Feb-14 05:00N 43°12' E 006°60'510.0
2018-Feb-14 04:30N 43°14' E 007°05'510.9
2018-Feb-14 04:00N 43°17' E 007°12'510.6
2018-Feb-14 03:30N 43°20' E 007°18'510.8
2018-Feb-14 03:00N 43°23' E 007°24'611.2
2018-Feb-14 02:26N 43°27' E 007°31'6111.0
2018-Feb-13 20:56N 44°11' E 008°29'410.1
2018-Feb-13 20:29N 44°15' E 008°31'4 7.3
2018-Feb-13 20:00N 44°19' E 008°30'0 0.3
2018-Feb-13 19:26N 44°19' E 008°30'0 0.0
2018-Feb-13 18:56N 44°19' E 008°30'0 0.0
2018-Feb-13 18:26N 44°19' E 008°30'0 0.0
2018-Feb-13 17:56N 44°19' E 008°30'0 0.0
2018-Feb-13 17:26N 44°19' E 008°30'0 0.0
2018-Feb-13 16:56N 44°19' E 008°30'0 0.0
2018-Feb-13 16:29N 44°19' E 008°30'0 0.0
2018-Feb-13 15:59N 44°19' E 008°30'0 0.0
2018-Feb-13 15:26N 44°19' E 008°30'0 0.0
2018-Feb-13 14:59N 44°19' E 008°30'0 0.0
2018-Feb-13 14:29N 44°19' E 008°30'0 0.0
2018-Feb-13 13:59N 44°19' E 008°30'0 0.0
2018-Feb-13 13:29N 44°19' E 008°30'0 0.0
2018-Feb-13 12:59N 44°19' E 008°30'0 0.0
2018-Feb-13 12:29N 44°19' E 008°30'0 0.0
2018-Feb-13 12:00N 44°19' E 008°30'1 1.3
2018-Feb-13 11:30N 44°19' E 008°31'3 6.7
2018-Feb-13 11:00N 44°16' E 008°31'510.2
2018-Feb-13 10:30N 44°11' E 008°29'71 9.5
2018-Feb-13 03:04N 43°21' E 007°20'110.4
2018-Feb-13 02:55N 43°20' E 007°18'410.5
2018-Feb-13 02:30N 43°17' E 007°13'510.7
2018-Feb-13 02:00N 43°14' E 007°07'510.4
2018-Feb-13 01:30N 43°11' E 007°01'  

Dump ship's entire track history